Kelseyville, California
Current Conditions -  °F | °C
As of 2:56 AM on Friday 31 Oct 2014 (Local Time) from KUKI Reporting Station
Broken Clouds Broken Clouds  
Wind Chill: 59°   Ceiling: 2600
Heat Index: 59°   Visibility: 10mi
Dew Point: 54°   Wind: 3mph
Humidity: 83%   Direction: 170°S
Pressure: 29.85"   Gusts: NA
Location:  38.98°N, 122.84°W
Report Text: KUKI 310956Z AUTO 17003KT 10SM BKN026 15/12 A2985 RMK AO2 SLP101 T01500122
Loading
Personal Weather Stations






























Interactive Weather Map
Tropical Storm Tracking
New forecast layout! Learn more

10-Day Weather Forecast

Advertisements
Track Severe Weather on mobile